createdAt,value
2022-12-04T00:00:56.366Z,97.14
2022-12-04T00:01:59.056Z,97.17
2022-12-04T00:03:01.897Z,96.97
2022-12-04T00:04:05.028Z,97.14
2022-12-04T00:05:10.166Z,97.17
2022-12-04T00:06:18.800Z,97.22
2022-12-04T00:07:21.582Z,97.35
2022-12-04T00:08:24.485Z,97.39
2022-12-04T00:09:27.166Z,97.13
2022-12-04T00:10:29.819Z,96.95
2022-12-04T00:11:33.601Z,96.93
2022-12-04T00:12:36.275Z,96.91
2022-12-04T00:13:39.605Z,97.00
2022-12-04T00:15:16.627Z,97.02
2022-12-04T00:16:10.097Z,97.15
2022-12-04T00:17:12.941Z,97.12
2022-12-04T00:18:15.638Z,97.15
2022-12-04T00:19:18.415Z,97.39
2022-12-04T00:20:21.340Z,97.48
2022-12-04T00:21:25.118Z,97.62
2022-12-04T00:22:27.874Z,97.83
2022-12-04T00:23:30.680Z,97.84
2022-12-04T00:24:34.574Z,97.84
2022-12-04T00:25:41.164Z,97.72
2022-12-04T00:26:44.453Z,97.59
2022-12-04T00:27:47.146Z,97.58
2022-12-04T00:28:50.165Z,97.69
2022-12-04T00:29:53.347Z,97.73
2022-12-04T00:30:56.657Z,97.76
2022-12-04T00:31:59.435Z,97.36
2022-12-04T00:33:02.102Z,97.09
2022-12-04T00:34:08.131Z,96.99
2022-12-04T00:35:11.174Z,96.96
2022-12-04T00:36:17.025Z,96.98
2022-12-04T00:37:19.712Z,97.02
2022-12-04T00:38:22.386Z,97.10
2022-12-04T00:39:24.956Z,97.22
2022-12-04T00:40:27.587Z,97.00
2022-12-04T00:41:32.697Z,96.74
2022-12-04T00:42:35.450Z,96.52
2022-12-04T00:43:38.626Z,96.41
2022-12-04T00:44:41.532Z,96.54
2022-12-04T00:45:44.205Z,96.63
2022-12-04T00:46:47.140Z,96.73
2022-12-04T00:47:49.864Z,96.57
2022-12-04T00:48:52.964Z,96.58
2022-12-04T00:49:55.865Z,96.57
2022-12-04T00:51:07.347Z,96.75
2022-12-04T00:52:09.947Z,96.57
2022-12-04T00:53:13.451Z,96.38
2022-12-04T00:54:16.181Z,96.54
2022-12-04T00:55:18.871Z,96.66
2022-12-04T00:56:27.288Z,96.77
2022-12-04T00:57:30.362Z,96.83
2022-12-04T00:58:33.892Z,96.82
2022-12-04T00:59:38.052Z,96.69
2022-12-04T01:00:42.722Z,96.57
2022-12-04T01:01:45.549Z,96.60
2022-12-04T01:02:48.442Z,96.60
2022-12-04T01:03:51.771Z,96.81
2022-12-04T01:04:54.567Z,96.72
2022-12-04T01:05:57.419Z,96.65
2022-12-04T01:07:04.951Z,96.55
2022-12-04T01:08:08.836Z,96.40
2022-12-04T01:09:11.573Z,96.36
2022-12-04T01:10:14.400Z,96.53
2022-12-04T01:11:19.689Z,96.67
2022-12-04T01:12:22.433Z,96.80
2022-12-04T01:13:26.601Z,97.09
2022-12-04T01:14:29.295Z,97.33
2022-12-04T01:15:32.051Z,97.16
2022-12-04T01:16:38.016Z,97.02
2022-12-04T01:17:40.888Z,97.28
2022-12-04T01:18:43.664Z,97.49
2022-12-04T01:19:46.482Z,97.64
2022-12-04T01:20:51.393Z,97.62
2022-12-04T01:21:54.192Z,97.75
2022-12-04T01:22:57.027Z,97.81
2022-12-04T01:24:00.128Z,97.99
2022-12-04T01:25:03.338Z,98.17
2022-12-04T01:26:06.178Z,98.28
2022-12-04T01:27:09.000Z,98.41
2022-12-04T01:28:12.168Z,98.47
2022-12-04T01:29:15.109Z,98.59
2022-12-04T01:30:17.832Z,98.70
2022-12-04T01:31:23.160Z,98.90
2022-12-04T01:32:26.326Z,99.12
2022-12-04T01:33:30.131Z,99.35
2022-12-04T01:34:32.786Z,99.48
2022-12-04T01:35:35.657Z,99.59
2022-12-04T01:36:38.298Z,99.77
2022-12-04T01:37:40.991Z,100.00
2022-12-04T01:38:44.201Z,100.00
2022-12-04T01:39:46.879Z,100.00
2022-12-04T01:40:49.607Z,100.00
2022-12-04T01:41:52.312Z,100.00
2022-12-04T01:42:55.071Z,100.00
2022-12-04T01:44:14.109Z,100.00
2022-12-04T01:45:39.261Z,100.00
2022-12-04T01:46:44.011Z,100.00
2022-12-04T01:47:47.529Z,100.00
2022-12-04T01:48:53.921Z,100.00
2022-12-04T01:50:00.024Z,100.00
2022-12-04T01:51:29.187Z,100.00
2022-12-04T01:52:32.132Z,100.00
2022-12-04T01:53:40.191Z,100.00
2022-12-04T01:54:46.826Z,100.00
2022-12-04T01:55:49.918Z,100.00
2022-12-04T01:56:57.614Z,100.00
2022-12-04T01:58:02.507Z,100.00
2022-12-04T01:59:08.646Z,100.00
2022-12-04T02:00:14.692Z,99.81
2022-12-04T02:01:17.422Z,99.38
2022-12-04T02:02:26.456Z,99.25
2022-12-04T02:03:29.719Z,98.56
2022-12-04T02:04:34.784Z,98.45
2022-12-04T02:05:37.392Z,98.22
2022-12-04T02:06:40.460Z,97.98
2022-12-04T02:07:47.219Z,97.51
2022-12-04T02:08:50.219Z,97.55
2022-12-04T02:09:56.456Z,97.83
2022-12-04T02:11:25.808Z,98.07
2022-12-04T02:12:37.242Z,98.06
2022-12-04T02:13:52.853Z,97.60
2022-12-04T02:15:04.297Z,97.58
2022-12-04T02:16:31.378Z,97.70
2022-12-04T02:18:00.221Z,97.46
2022-12-04T02:19:28.913Z,97.11
2022-12-04T02:20:50.376Z,96.96
2022-12-04T02:21:57.410Z,96.66
2022-12-04T02:23:29.974Z,95.32
2022-12-04T02:24:46.832Z,93.74
2022-12-04T02:26:14.016Z,93.19
2022-12-04T02:27:41.533Z,93.00
2022-12-04T02:28:56.613Z,92.87
2022-12-04T02:30:17.685Z,92.48
2022-12-04T02:32:00.368Z,92.63
2022-12-04T02:33:11.887Z,92.12
2022-12-04T02:34:42.290Z,91.97
2022-12-04T02:35:49.460Z,91.83
2022-12-04T02:37:00.577Z,91.22
2022-12-04T02:38:12.210Z,91.32
2022-12-04T02:39:54.594Z,91.39
2022-12-04T02:41:06.209Z,91.81
2022-12-04T02:42:19.660Z,92.09
2022-12-04T02:43:30.773Z,92.29
2022-12-04T02:44:41.570Z,92.57
2022-12-04T02:45:54.965Z,92.78
2022-12-04T02:47:05.535Z,92.81
2022-12-04T02:48:09.248Z,93.02
2022-12-04T02:49:19.970Z,93.11
2022-12-04T02:50:24.609Z,93.26
2022-12-04T02:51:31.437Z,93.43
2022-12-04T02:52:41.246Z,93.61
2022-12-04T02:53:57.608Z,93.85
2022-12-04T02:55:08.621Z,94.03
2022-12-04T02:56:20.058Z,93.83
2022-12-04T02:57:28.215Z,93.63
2022-12-04T02:58:42.647Z,93.88
2022-12-04T02:59:49.086Z,93.55
2022-12-04T03:00:55.038Z,93.02
2022-12-04T03:02:04.254Z,93.26
2022-12-04T03:03:13.454Z,93.48
2022-12-04T03:04:24.691Z,93.25
2022-12-04T03:05:36.409Z,93.45
2022-12-04T03:06:43.289Z,93.37
2022-12-04T03:08:01.075Z,93.67
2022-12-04T03:09:14.808Z,94.00
2022-12-04T03:10:50.208Z,94.01
2022-12-04T03:11:58.287Z,94.00
2022-12-04T03:13:14.631Z,94.11
2022-12-04T03:14:29.511Z,94.18
2022-12-04T03:15:56.519Z,94.06
2022-12-04T03:17:08.670Z,94.30
2022-12-04T03:18:22.413Z,94.36
2022-12-04T03:19:48.960Z,94.26
2022-12-04T03:20:59.629Z,94.29
2022-12-04T03:22:11.024Z,94.12
2022-12-04T03:23:18.962Z,94.01
2022-12-04T03:24:22.053Z,94.23
2022-12-04T03:25:33.426Z,94.04
2022-12-04T03:26:55.085Z,94.01
2022-12-04T03:28:08.298Z,94.08
2022-12-04T03:29:23.944Z,94.06
2022-12-04T03:30:35.623Z,93.81
2022-12-04T03:31:38.121Z,93.90
2022-12-04T03:32:49.675Z,93.71
2022-12-04T03:33:55.432Z,93.72
2022-12-04T03:35:13.434Z,93.72
2022-12-04T03:36:25.393Z,93.72
2022-12-04T03:37:40.387Z,93.72
2022-12-04T03:39:12.066Z,93.69
2022-12-04T03:40:23.982Z,93.53
2022-12-04T03:41:50.031Z,93.65
2022-12-04T03:43:15.826Z,93.28
2022-12-04T03:44:41.804Z,93.47
2022-12-04T03:45:54.338Z,93.92
2022-12-04T03:47:07.102Z,94.07
2022-12-04T03:48:35.761Z,94.30
2022-12-04T03:49:45.940Z,94.22
2022-12-04T03:51:02.477Z,94.18
2022-12-04T03:52:29.419Z,94.48
2022-12-04T03:53:38.153Z,94.57
2022-12-04T03:54:47.013Z,94.61
2022-12-04T03:56:18.054Z,94.75
2022-12-04T03:57:26.093Z,94.55
2022-12-04T03:58:32.732Z,94.36
2022-12-04T03:59:43.298Z,94.40
2022-12-04T04:00:48.231Z,94.29
2022-12-04T04:01:52.513Z,94.29
2022-12-04T04:03:07.476Z,94.68
2022-12-04T04:04:14.824Z,94.24
2022-12-04T04:05:19.370Z,94.54
2022-12-04T04:06:29.415Z,94.85
2022-12-04T04:07:38.824Z,95.17
2022-12-04T04:08:46.319Z,95.43
2022-12-04T04:09:54.868Z,95.55
2022-12-04T04:11:27.848Z,95.46
2022-12-04T04:12:37.164Z,95.47
2022-12-04T04:14:05.481Z,95.62
2022-12-04T04:15:36.966Z,95.52
2022-12-04T04:17:04.002Z,95.31
2022-12-04T04:18:25.515Z,95.07
2022-12-04T04:19:51.098Z,94.45
2022-12-04T04:21:17.976Z,94.31
2022-12-04T04:22:42.454Z,94.63
2022-12-04T04:24:08.891Z,94.66
2022-12-04T04:25:19.520Z,94.92
2022-12-04T04:26:25.707Z,95.11
2022-12-04T04:27:28.575Z,95.18
2022-12-04T04:28:37.484Z,95.14
2022-12-04T04:29:52.086Z,94.96
2022-12-04T04:31:02.402Z,94.81
2022-12-04T04:32:13.804Z,94.55
2022-12-04T04:33:17.331Z,94.34
2022-12-04T04:34:31.746Z,94.30
2022-12-04T04:35:52.973Z,94.15
2022-12-04T04:37:08.952Z,94.48
2022-12-04T04:38:20.398Z,94.33
2022-12-04T04:39:40.401Z,94.47
2022-12-04T04:41:01.470Z,94.32
2022-12-04T04:42:25.079Z,94.16
2022-12-04T04:43:44.727Z,94.48
2022-12-04T04:44:54.729Z,93.95
2022-12-04T04:46:06.570Z,93.67
2022-12-04T04:47:15.388Z,93.80
2022-12-04T04:48:32.137Z,93.86
2022-12-04T04:49:38.779Z,93.91
2022-12-04T04:50:42.655Z,93.96
2022-12-04T04:51:46.586Z,94.28
2022-12-04T04:52:53.978Z,94.52
2022-12-04T04:54:01.063Z,94.41
2022-12-04T04:55:04.936Z,94.31
2022-12-04T04:56:08.460Z,94.52
2022-12-04T04:57:11.256Z,94.54
2022-12-04T04:58:23.741Z,94.19
2022-12-04T04:59:26.988Z,94.23
2022-12-04T05:00:29.759Z,93.78
2022-12-04T05:02:40.668Z,93.94
2022-12-04T05:03:44.163Z,93.64
2022-12-04T05:04:47.033Z,93.65
2022-12-04T05:05:49.744Z,93.69
2022-12-04T05:06:52.559Z,94.00
2022-12-04T05:07:55.680Z,94.16
2022-12-04T05:08:58.675Z,94.00
2022-12-04T05:10:01.735Z,93.81
2022-12-04T05:11:05.722Z,94.02
2022-12-04T05:12:09.194Z,94.21
2022-12-04T05:13:13.364Z,93.79
2022-12-04T05:14:22.884Z,93.60
2022-12-04T05:15:25.699Z,93.59
2022-12-04T05:16:28.700Z,93.38
2022-12-04T05:17:31.798Z,93.34
2022-12-04T05:18:35.746Z,93.14
2022-12-04T05:19:57.582Z,93.09
2022-12-04T05:21:09.388Z,92.92
2022-12-04T05:22:13.476Z,93.02
2022-12-04T05:23:16.358Z,92.67
2022-12-04T05:24:19.186Z,92.77
2022-12-04T05:25:21.969Z,92.79
2022-12-04T05:26:25.167Z,92.66
2022-12-04T05:27:31.688Z,92.20
2022-12-04T05:28:34.554Z,92.41
2022-12-04T05:29:37.894Z,92.27
2022-12-04T05:30:41.336Z,92.29
2022-12-04T05:31:44.595Z,92.17
2022-12-04T05:32:47.471Z,91.96
2022-12-04T05:33:50.272Z,91.58
2022-12-04T05:34:54.492Z,91.66
2022-12-04T05:35:59.169Z,91.82
2022-12-04T05:37:08.411Z,91.86
2022-12-04T05:38:11.616Z,91.78
2022-12-04T05:39:14.537Z,91.73
2022-12-04T05:40:17.518Z,91.91
2022-12-04T05:41:20.387Z,91.91
2022-12-04T05:42:23.298Z,91.63
2022-12-04T05:43:26.726Z,91.22
2022-12-04T05:44:29.586Z,91.22
2022-12-04T05:45:32.652Z,91.08
2022-12-04T05:46:35.593Z,91.08
2022-12-04T05:47:40.893Z,90.97
2022-12-04T05:48:43.691Z,90.93
2022-12-04T05:49:46.863Z,90.95
2022-12-04T05:50:49.693Z,91.17
2022-12-04T05:51:52.454Z,91.09
2022-12-04T05:52:55.335Z,90.53
2022-12-04T05:53:58.210Z,90.69
2022-12-04T05:55:01.095Z,90.61
2022-12-04T05:56:06.268Z,90.64
2022-12-04T05:57:09.428Z,90.72
2022-12-04T05:58:12.277Z,90.62
2022-12-04T05:59:15.723Z,90.38
2022-12-04T06:00:18.685Z,90.44
2022-12-04T06:01:24.124Z,90.45
2022-12-04T06:02:26.883Z,90.61
2022-12-04T06:03:29.970Z,90.31
2022-12-04T06:04:33.093Z,90.23
2022-12-04T06:05:35.933Z,90.07
2022-12-04T06:06:39.382Z,90.22
2022-12-04T06:07:42.405Z,90.06
2022-12-04T06:08:45.614Z,89.81
2022-12-04T06:09:48.455Z,89.66
2022-12-04T06:10:51.298Z,89.82
2022-12-04T06:11:57.939Z,89.99
2022-12-04T06:13:01.188Z,90.08
2022-12-04T06:14:06.652Z,89.73
2022-12-04T06:15:10.014Z,89.27
2022-12-04T06:16:21.746Z,89.31
2022-12-04T06:17:24.859Z,89.34
2022-12-04T06:18:27.732Z,89.58
2022-12-04T06:19:30.495Z,89.76
2022-12-04T06:20:34.602Z,89.40
2022-12-04T06:21:40.100Z,89.60
2022-12-04T06:22:42.915Z,89.84
2022-12-04T06:23:46.093Z,89.34
2022-12-04T06:24:49.014Z,89.08
2022-12-04T06:25:52.014Z,88.94
2022-12-04T06:28:22.294Z,89.07
2022-12-04T06:29:26.012Z,88.99
2022-12-04T06:30:30.656Z,89.19
2022-12-04T06:31:36.431Z,89.38
2022-12-04T06:32:39.292Z,88.93
2022-12-04T06:33:43.094Z,88.72
2022-12-04T06:34:46.228Z,88.86
2022-12-04T06:35:57.571Z,89.08
2022-12-04T06:37:00.299Z,89.15
2022-12-04T06:38:03.173Z,88.66
2022-12-04T06:39:06.106Z,88.36
2022-12-04T06:40:09.755Z,87.97
2022-12-04T06:41:14.533Z,87.88
2022-12-04T06:42:17.765Z,88.13
2022-12-04T06:43:20.563Z,87.78
2022-12-04T06:44:23.392Z,87.68
2022-12-04T06:45:26.228Z,87.47
2022-12-04T06:46:32.541Z,87.54
2022-12-04T06:47:36.498Z,87.28
2022-12-04T06:48:39.933Z,87.18
2022-12-04T06:49:43.953Z,87.12
2022-12-04T06:50:46.698Z,87.15
2022-12-04T06:51:49.513Z,87.00
2022-12-04T06:52:52.196Z,86.80
2022-12-04T06:53:55.060Z,86.82
2022-12-04T06:54:59.280Z,87.03
2022-12-04T06:56:05.495Z,86.79
2022-12-04T06:57:08.673Z,86.50
2022-12-04T06:58:17.697Z,86.24
2022-12-04T06:59:28.016Z,85.99
2022-12-04T07:00:31.318Z,85.94
2022-12-04T07:01:35.249Z,85.81
2022-12-04T07:02:38.500Z,86.12
2022-12-04T07:03:46.333Z,86.11
2022-12-04T07:04:57.357Z,86.25
2022-12-04T07:06:00.030Z,86.57
2022-12-04T07:07:02.978Z,86.47
2022-12-04T07:08:05.977Z,86.31
2022-12-04T07:09:11.409Z,86.32
2022-12-04T07:10:14.194Z,85.87
2022-12-04T07:11:17.851Z,85.46
2022-12-04T07:12:20.832Z,85.29
2022-12-04T07:13:23.602Z,85.57
2022-12-04T07:14:26.652Z,85.48
2022-12-04T07:15:29.707Z,85.30
2022-12-04T07:16:40.021Z,85.30
2022-12-04T07:17:43.934Z,85.12
2022-12-04T07:18:50.498Z,84.98
2022-12-04T07:19:54.072Z,84.57
2022-12-04T07:20:57.166Z,84.39
2022-12-04T07:22:00.321Z,84.69
2022-12-04T07:23:07.214Z,84.79
2022-12-04T07:24:16.368Z,84.23
2022-12-04T07:25:19.332Z,84.32
2022-12-04T07:26:23.343Z,84.48
2022-12-04T07:27:26.122Z,84.79
2022-12-04T07:28:29.135Z,84.53
2022-12-04T07:29:36.029Z,84.65
2022-12-04T07:30:39.366Z,84.43
2022-12-04T07:31:42.231Z,84.36
2022-12-04T07:32:44.974Z,84.64
2022-12-04T07:33:48.736Z,84.59
2022-12-04T07:34:51.734Z,84.34
2022-12-04T07:35:58.967Z,84.23
2022-12-04T07:37:01.918Z,83.77
2022-12-04T07:38:05.216Z,84.03
2022-12-04T07:39:08.324Z,84.20
2022-12-04T07:40:11.736Z,84.28
2022-12-04T07:41:15.376Z,84.13
2022-12-04T07:42:23.826Z,83.93
2022-12-04T07:43:27.495Z,84.00
2022-12-04T07:44:33.544Z,84.36
2022-12-04T07:45:40.908Z,84.65
2022-12-04T07:46:43.755Z,84.31
2022-12-04T07:47:46.748Z,84.23
2022-12-04T07:48:49.681Z,84.03
2022-12-04T07:49:52.731Z,83.47
2022-12-04T07:51:07.648Z,83.25
2022-12-04T07:52:10.488Z,83.38
2022-12-04T07:53:13.695Z,83.58
2022-12-04T07:54:16.674Z,83.52
2022-12-04T07:55:23.137Z,83.45
2022-12-04T07:56:26.347Z,83.62
2022-12-04T07:57:29.658Z,83.23
2022-12-04T07:58:33.894Z,82.11
2022-12-04T07:59:37.307Z,81.88
2022-12-04T08:00:40.336Z,82.27
2022-12-04T08:01:43.344Z,82.45
2022-12-04T08:02:46.289Z,82.23
2022-12-04T08:03:51.835Z,81.62
2022-12-04T08:04:54.935Z,81.15
2022-12-04T08:06:03.252Z,80.77
2022-12-04T08:07:06.277Z,80.88
2022-12-04T08:08:09.190Z,81.17
2022-12-04T08:09:12.201Z,80.57
2022-12-04T08:10:15.498Z,80.67
2022-12-04T08:11:22.655Z,80.99
2022-12-04T08:12:25.469Z,80.34
2022-12-04T08:13:28.239Z,79.89
2022-12-04T08:14:31.049Z,80.13
2022-12-04T08:15:35.217Z,80.46
2022-12-04T08:16:38.415Z,80.37
2022-12-04T08:17:41.356Z,80.24
2022-12-04T08:18:48.800Z,79.99
2022-12-04T08:19:51.599Z,79.78
2022-12-04T08:20:54.439Z,80.05
2022-12-04T08:21:58.200Z,80.62
2022-12-04T08:23:00.883Z,80.86
2022-12-04T08:24:03.769Z,81.06
2022-12-04T08:25:06.630Z,80.82
2022-12-04T08:26:10.729Z,80.35
2022-12-04T08:27:13.598Z,79.85
2022-12-04T08:28:18.043Z,80.04
2022-12-04T08:29:20.774Z,79.84
2022-12-04T08:30:23.608Z,80.21
2022-12-04T08:31:29.547Z,80.41
2022-12-04T08:32:33.774Z,80.79
2022-12-04T08:33:36.767Z,81.17
2022-12-04T08:34:39.574Z,80.79
2022-12-04T08:35:42.432Z,81.10
2022-12-04T08:36:45.303Z,81.29
2022-12-04T08:37:48.137Z,80.59
2022-12-04T08:38:51.488Z,80.61
2022-12-04T08:39:54.791Z,80.47
2022-12-04T08:41:06.500Z,80.04
2022-12-04T08:42:09.407Z,80.28
2022-12-04T08:43:12.311Z,80.13
2022-12-04T08:44:15.281Z,79.98
2022-12-04T08:45:18.187Z,79.74
2022-12-04T08:46:21.853Z,79.81
2022-12-04T08:47:24.895Z,79.09
2022-12-04T08:48:28.168Z,79.17
2022-12-04T08:49:31.057Z,79.01
2022-12-04T08:50:33.961Z,78.98
2022-12-04T08:51:37.008Z,79.38
2022-12-04T08:52:39.950Z,79.24
2022-12-04T08:53:43.068Z,78.61
2022-12-04T08:54:46.021Z,78.69
2022-12-04T08:55:49.688Z,78.95
2022-12-04T08:56:52.882Z,78.73
2022-12-04T08:57:55.878Z,78.46
2022-12-04T08:59:00.264Z,78.71
2022-12-04T09:00:03.922Z,78.96
2022-12-04T09:01:10.295Z,78.45
2022-12-04T09:02:13.869Z,78.68
2022-12-04T09:03:19.400Z,78.42
2022-12-04T09:04:22.578Z,78.77
2022-12-04T09:05:29.024Z,78.80
2022-12-04T09:06:32.717Z,79.20
2022-12-04T09:07:39.364Z,79.48
2022-12-04T09:08:43.723Z,79.35
2022-12-04T09:09:48.432Z,79.22
2022-12-04T09:10:52.630Z,79.73
2022-12-04T09:11:56.319Z,79.83
2022-12-04T09:12:59.768Z,79.40
2022-12-04T09:14:04.093Z,79.52
2022-12-04T09:15:09.185Z,79.67
2022-12-04T09:16:18.348Z,79.95
2022-12-04T09:17:21.665Z,79.91
2022-12-04T09:18:24.750Z,80.19
2022-12-04T09:19:28.147Z,80.64
2022-12-04T09:20:31.618Z,80.50
2022-12-04T09:21:34.910Z,80.34
2022-12-04T09:23:02.927Z,80.00
2022-12-04T09:24:04.746Z,79.54
2022-12-04T09:25:12.607Z,80.28
2022-12-04T09:26:30.712Z,80.71
2022-12-04T09:27:42.099Z,81.16
2022-12-04T09:28:46.392Z,80.51
2022-12-04T09:29:49.813Z,80.59
2022-12-04T09:31:05.915Z,80.46
2022-12-04T09:32:12.274Z,80.61
2022-12-04T09:33:17.519Z,80.93
2022-12-04T09:34:21.023Z,80.96
2022-12-04T09:35:24.590Z,81.04
2022-12-04T09:36:28.018Z,81.20
2022-12-04T09:37:32.750Z,80.96
2022-12-04T09:38:36.213Z,80.75
2022-12-04T09:39:39.727Z,80.72
2022-12-04T09:41:05.462Z,80.80
2022-12-04T09:42:26.209Z,80.99
2022-12-04T09:43:42.906Z,80.31
2022-12-04T09:45:05.118Z,80.51
2022-12-04T09:46:19.279Z,80.23
2022-12-04T09:47:29.616Z,79.88
2022-12-04T09:48:38.474Z,79.94
2022-12-04T09:49:42.910Z,79.81
2022-12-04T09:50:50.797Z,79.60
2022-12-04T09:51:58.148Z,78.31
2022-12-04T09:53:20.516Z,78.42
2022-12-04T09:54:30.021Z,78.40
2022-12-04T09:56:11.318Z,78.61
2022-12-04T09:57:28.379Z,78.58
2022-12-04T09:58:53.556Z,78.98
2022-12-04T10:00:02.059Z,79.46
2022-12-04T10:01:06.372Z,79.29
2022-12-04T10:02:09.976Z,79.31
2022-12-04T10:03:17.428Z,79.37
2022-12-04T10:04:21.041Z,79.07
2022-12-04T10:05:55.043Z,79.49
2022-12-04T10:07:20.693Z,79.98
2022-12-04T10:08:35.175Z,79.18
2022-12-04T10:10:12.854Z,77.98
2022-12-04T10:11:44.084Z,78.79
2022-12-04T10:13:08.797Z,78.38
2022-12-04T10:14:33.425Z,78.08
2022-12-04T10:16:00.525Z,78.84
2022-12-04T10:17:33.137Z,79.09
2022-12-04T10:18:57.717Z,78.68
2022-12-04T10:20:11.170Z,78.65
2022-12-04T10:21:40.146Z,79.20
2022-12-04T10:22:50.730Z,78.28
2022-12-04T10:24:10.298Z,75.62
2022-12-04T10:25:21.476Z,75.63
2022-12-04T10:26:33.804Z,75.72
2022-12-04T10:27:51.696Z,75.58
2022-12-04T10:29:02.513Z,75.75
2022-12-04T10:30:18.437Z,75.41
2022-12-04T10:31:21.502Z,75.72
2022-12-04T10:32:29.673Z,75.96
2022-12-04T10:33:45.432Z,75.97
2022-12-04T10:34:51.596Z,76.38
2022-12-04T10:35:54.808Z,75.57
2022-12-04T10:37:04.751Z,75.61
2022-12-04T10:38:19.126Z,74.94
2022-12-04T10:39:27.541Z,75.19
2022-12-04T10:40:38.111Z,75.08
2022-12-04T10:41:48.245Z,75.50
2022-12-04T10:43:14.993Z,74.33
2022-12-04T10:44:23.747Z,73.76
2022-12-04T10:45:26.895Z,73.32
2022-12-04T10:46:33.228Z,73.50
2022-12-04T10:47:37.714Z,73.46
2022-12-04T10:48:42.077Z,71.99
2022-12-04T10:49:44.962Z,71.79
2022-12-04T10:50:47.770Z,72.25
2022-12-04T10:51:50.967Z,71.76
2022-12-04T10:52:53.687Z,72.25
2022-12-04T10:53:57.192Z,71.48
2022-12-04T10:55:01.412Z,71.34
2022-12-04T10:56:18.300Z,71.37
2022-12-04T10:57:21.107Z,71.91
2022-12-04T10:58:25.585Z,71.70
2022-12-04T10:59:29.638Z,71.14
2022-12-04T11:00:48.120Z,71.78
2022-12-04T11:02:03.130Z,71.60
2022-12-04T11:03:22.727Z,72.27
2022-12-04T11:04:31.147Z,72.25
2022-12-04T11:05:44.369Z,72.37
2022-12-04T11:06:50.107Z,71.70
2022-12-04T11:07:55.144Z,71.26
2022-12-04T11:09:00.125Z,71.08
2022-12-04T11:10:07.637Z,71.02
2022-12-04T11:11:15.288Z,71.05
2022-12-04T11:12:21.323Z,70.97
2022-12-04T11:13:24.637Z,71.56
2022-12-04T11:14:30.767Z,71.96
2022-12-04T11:15:46.385Z,72.14
2022-12-04T11:17:01.120Z,72.04
2022-12-04T11:18:16.343Z,72.41
2022-12-04T11:19:28.108Z,72.29
2022-12-04T11:20:31.292Z,72.63
2022-12-04T11:21:34.686Z,72.19
2022-12-04T11:22:53.159Z,72.00
2022-12-04T11:23:56.782Z,71.79
2022-12-04T11:25:00.322Z,72.05
2022-12-04T11:26:06.105Z,72.10
2022-12-04T11:27:21.285Z,72.42
2022-12-04T11:28:43.207Z,72.83
2022-12-04T11:29:46.984Z,73.31
2022-12-04T11:30:55.187Z,72.85
2022-12-04T11:32:05.585Z,72.25
2022-12-04T11:33:30.522Z,72.98
2022-12-04T11:34:39.502Z,73.15
2022-12-04T11:35:43.231Z,72.87
2022-12-04T11:36:53.212Z,73.15
2022-12-04T11:38:02.204Z,73.47
2022-12-04T11:39:38.199Z,73.05
2022-12-04T11:40:49.318Z,73.22
2022-12-04T11:42:20.786Z,73.00
2022-12-04T11:43:33.339Z,72.57
2022-12-04T11:44:37.066Z,72.76
2022-12-04T11:45:40.304Z,72.89
2022-12-04T11:46:53.783Z,72.94
2022-12-04T11:48:03.635Z,72.99
2022-12-04T11:49:22.346Z,73.10
2022-12-04T11:50:38.674Z,73.45
2022-12-04T11:52:19.179Z,72.05
2022-12-04T11:53:51.730Z,72.13
2022-12-04T11:55:22.449Z,72.58
2022-12-04T11:56:35.716Z,72.62
2022-12-04T11:58:02.449Z,72.90
2022-12-04T11:59:08.107Z,73.32
2022-12-04T12:00:20.828Z,73.09
2022-12-04T12:01:50.959Z,72.57
2022-12-04T12:03:08.452Z,72.70
2022-12-04T12:04:38.520Z,73.25
2022-12-04T12:06:09.928Z,73.73
2022-12-04T12:07:25.046Z,74.10
2022-12-04T12:08:40.993Z,74.65
2022-12-04T12:10:04.520Z,74.20
2022-12-04T12:11:23.025Z,72.63
2022-12-04T12:12:43.819Z,72.29
2022-12-04T12:14:19.949Z,72.47
2022-12-04T12:15:47.380Z,73.00
2022-12-04T12:17:22.161Z,72.23
2022-12-04T12:18:28.101Z,72.46
2022-12-04T12:19:53.771Z,72.58
2022-12-04T12:21:05.768Z,72.41
2022-12-04T12:22:36.608Z,73.17
2022-12-04T12:23:56.692Z,73.48
2022-12-04T12:25:11.897Z,72.65
2022-12-04T12:26:17.670Z,73.00
2022-12-04T12:27:51.797Z,72.96
2022-12-04T12:29:11.071Z,73.05
2022-12-04T12:30:21.640Z,72.91
2022-12-04T12:32:02.509Z,73.33
2022-12-04T12:33:12.055Z,73.18
2022-12-04T12:34:38.502Z,73.37
2022-12-04T12:36:03.347Z,73.41
2022-12-04T12:37:11.712Z,73.49
2022-12-04T12:38:48.616Z,73.55
2022-12-04T12:40:03.812Z,73.62
2022-12-04T12:41:45.326Z,74.11
2022-12-04T12:43:24.329Z,74.01
2022-12-04T12:44:31.060Z,74.26
2022-12-04T12:45:55.933Z,74.47
2022-12-04T12:47:09.958Z,74.67
2022-12-04T12:48:24.323Z,74.49
2022-12-04T12:49:42.065Z,73.88
2022-12-04T12:51:09.050Z,73.88
2022-12-04T12:52:35.339Z,74.24
2022-12-04T12:53:43.500Z,74.56
2022-12-04T12:54:56.397Z,74.71
2022-12-04T12:56:04.450Z,74.40
2022-12-04T12:57:19.406Z,74.85
2022-12-04T12:58:40.516Z,74.63
2022-12-04T13:00:15.900Z,74.87
2022-12-04T13:01:39.266Z,75.51
2022-12-04T13:03:06.881Z,74.69
2022-12-04T13:04:32.024Z,75.17
2022-12-04T13:05:43.910Z,75.92
2022-12-04T13:07:04.916Z,75.76
2022-12-04T13:08:47.877Z,74.79
2022-12-04T13:10:00.420Z,74.80
2022-12-04T13:11:21.398Z,75.80
2022-12-04T13:12:25.282Z,75.82
2022-12-04T13:13:32.784Z,74.89
2022-12-04T13:14:36.000Z,73.88
2022-12-04T13:15:44.832Z,74.08
2022-12-04T13:16:53.138Z,74.24
2022-12-04T13:17:57.883Z,74.12
2022-12-04T13:19:34.696Z,74.28
2022-12-04T13:20:49.733Z,74.45
2022-12-04T13:22:11.563Z,73.81
2022-12-04T13:23:37.693Z,74.13
2022-12-04T13:24:49.764Z,73.60
2022-12-04T13:26:06.733Z,73.80
2022-12-04T13:27:37.448Z,74.06
2022-12-04T13:29:09.891Z,74.83
2022-12-04T13:30:25.457Z,74.65
2022-12-04T13:31:42.911Z,74.81
2022-12-04T13:33:07.495Z,74.78
2022-12-04T13:34:39.297Z,74.84
2022-12-04T13:36:17.372Z,75.17
2022-12-04T13:37:47.713Z,75.12
2022-12-04T13:38:59.774Z,76.12
2022-12-04T13:40:29.447Z,76.31
2022-12-04T13:41:35.992Z,76.50
2022-12-04T13:42:39.045Z,76.60
2022-12-04T13:43:42.824Z,76.29
2022-12-04T13:44:54.877Z,75.45
2022-12-04T13:46:02.112Z,75.59
2022-12-04T13:47:08.427Z,75.97
2022-12-04T13:48:11.266Z,76.40
2022-12-04T13:49:20.292Z,76.02
2022-12-04T13:50:31.572Z,76.00
2022-12-04T13:51:45.185Z,76.48
2022-12-04T13:52:49.675Z,76.91
2022-12-04T13:54:24.326Z,77.27
2022-12-04T13:55:37.154Z,77.68
2022-12-04T13:56:41.866Z,77.76
2022-12-04T13:58:03.917Z,78.00
2022-12-04T13:59:26.810Z,78.04
2022-12-04T14:00:35.591Z,78.40
2022-12-04T14:01:41.405Z,78.42
2022-12-04T14:02:52.355Z,78.22
2022-12-04T14:03:57.703Z,77.99
2022-12-04T14:05:12.188Z,78.31
2022-12-04T14:06:44.276Z,77.87
2022-12-04T14:08:09.979Z,78.06
2022-12-04T14:09:25.228Z,78.45
2022-12-04T14:10:33.382Z,78.84
2022-12-04T14:11:47.301Z,78.79
2022-12-04T14:13:00.965Z,78.57
2022-12-04T14:14:08.149Z,78.86
2022-12-04T14:15:23.141Z,79.10
2022-12-04T14:16:29.591Z,79.10
2022-12-04T14:17:37.269Z,79.30
2022-12-04T14:18:40.531Z,79.64
2022-12-04T14:19:47.603Z,79.76
2022-12-04T14:21:00.739Z,79.80
2022-12-04T14:22:04.613Z,79.30
2022-12-04T14:23:16.727Z,79.15
2022-12-04T14:24:38.618Z,78.71
2022-12-04T14:25:42.485Z,78.83
2022-12-04T14:27:10.647Z,78.87
2022-12-04T14:28:31.018Z,78.44
2022-12-04T14:29:47.906Z,78.85
2022-12-04T14:31:08.960Z,79.16
2022-12-04T14:32:24.073Z,79.84
2022-12-04T14:33:30.934Z,80.02
2022-12-04T14:34:36.844Z,79.94
2022-12-04T14:36:06.928Z,80.04
2022-12-04T14:37:23.566Z,79.94
2022-12-04T14:38:26.769Z,79.40
2022-12-04T14:39:33.449Z,79.36
2022-12-04T14:41:06.205Z,79.52
2022-12-04T14:42:22.832Z,79.81
2022-12-04T14:43:41.447Z,80.16
2022-12-04T14:44:47.184Z,79.82
2022-12-04T14:46:10.928Z,79.24
2022-12-04T14:47:48.011Z,79.17
2022-12-04T14:49:23.398Z,79.87
2022-12-04T14:50:39.659Z,80.02
2022-12-04T14:52:04.013Z,80.25
2022-12-04T14:53:16.137Z,80.25
2022-12-04T14:54:32.886Z,80.38
2022-12-04T14:56:06.067Z,80.25
2022-12-04T14:57:19.929Z,80.17
2022-12-04T14:58:34.953Z,80.59
2022-12-04T14:59:54.429Z,80.53
2022-12-04T15:01:00.189Z,80.52
2022-12-04T15:02:04.880Z,80.77
2022-12-04T15:03:13.607Z,80.65
2022-12-04T15:04:26.180Z,80.22